Time;durP1;ratioP1;P1;durP2;ratioP2;P2;SDS_P1;SDS_P2;PMS_P1;PMS_P2;Temp;Humidity;BMP_temperature;BMP_pressure;BME280_temperature;BME280_humidity;BME280_pressure;Samples;Min_cycle;Max_cycle;Signal;HPM_P1;HPM_P2
2022/08/04 00:02:53;;;;;;;7.43;3.33;;;19.60;99.90;;;;;;5055167;28;20048;-78
2022/08/04 00:05:58;;;;;;;9.07;3.47;;;19.60;99.90;;;;;;5072941;28;20040;-78
2022/08/04 00:08:41;;;;;;;10.88;3.08;;;19.60;99.90;;;;;;5017647;28;20060;-77
2022/08/04 00:11:09;;;;;;;8.95;3.50;;;19.50;99.90;;;;;;5054725;28;20395;-78
2022/08/04 00:13:40;;;;;;;7.15;2.90;;;19.50;99.90;;;;;;5054840;28;20123;-78
2022/08/04 00:16:09;;;;;;;11.60;3.67;;;19.50;99.90;;;;;;5055095;28;20462;-78
2022/08/04 00:18:56;;;;;;;10.50;3.67;;;19.50;99.90;;;;;;5038097;28;20044;-77
2022/08/04 00:21:24;;;;;;;5.80;2.95;;;19.50;99.90;;;;;;5071897;28;20319;-77
2022/08/04 00:23:52;;;;;;;10.40;3.70;;;19.50;99.90;;;;;;5054348;28;20048;-77
2022/08/04 00:26:18;;;;;;;11.20;3.40;;;19.50;99.90;;;;;;5053922;28;20446;-77
2022/08/04 00:28:43;;;;;;;6.55;3.20;;;19.40;99.90;;;;;;5072326;28;20036;-77
2022/08/04 00:31:10;;;;;;;9.10;3.47;;;19.40;99.90;;;;;;5053822;28;20041;-77
2022/08/04 00:33:37;;;;;;;9.23;3.17;;;19.30;99.90;;;;;;5054133;28;20084;-77
2022/08/04 00:36:04;;;;;;;8.27;3.90;;;19.30;99.90;;;;;;5053993;28;20064;-77
2022/08/04 00:38:30;;;;;;;7.70;4.10;;;19.20;99.90;;;;;;5054038;28;20037;-77
2022/08/04 00:41:29;;;;;;;6.55;3.90;;;19.20;99.90;;;;;;5053685;28;20082;-77
2022/08/04 00:44:32;;;;;;;8.73;4.22;;;19.20;99.90;;;;;;5037484;28;20418;-77
2022/08/04 00:47:29;;;;;;;11.95;3.47;;;19.20;99.90;;;;;;5054201;28;20044;-77
2022/08/04 00:50:08;;;;;;;7.63;4.00;;;19.20;99.90;;;;;;5053432;28;20048;-77
2022/08/04 00:52:55;;;;;;;8.77;3.67;;;19.30;99.90;;;;;;5071890;28;20048;-77
2022/08/04 00:55:27;;;;;;;9.98;3.90;;;19.30;99.90;;;;;;5054126;28;20518;-77
2022/08/04 00:58:12;;;;;;;6.00;3.83;;;19.30;99.90;;;;;;5053679;28;20044;-77
2022/08/04 01:01:03;;;;;;;7.90;3.53;;;19.30;99.90;;;;;;5053253;28;20048;-77
2022/08/04 01:03:38;;;;;;;6.57;4.30;;;19.40;99.90;;;;;;5053616;28;20040;-77
2022/08/04 01:06:25;;;;;;;13.23;4.53;;;19.30;99.90;;;;;;5053705;28;20097;-77
2022/08/04 01:09:02;;;;;;;11.35;4.07;;;19.40;99.90;;;;;;5071413;28;20049;-78
2022/08/04 01:11:52;;;;;;;13.27;4.53;;;19.30;99.90;;;;;;5053117;28;20040;-78
2022/08/04 01:14:20;;;;;;;11.88;4.63;;;19.40;99.90;;;;;;5071304;28;20399;-77
2022/08/04 01:16:53;;;;;;;13.73;5.35;;;19.40;99.90;;;;;;5053331;28;20052;-77
2022/08/04 01:19:52;;;;;;;11.00;4.55;;;19.40;99.90;;;;;;5036600;28;20119;-77
2022/08/04 01:22:31;;;;;;;10.52;4.20;;;19.30;99.90;;;;;;5053144;28;20040;-78
2022/08/04 01:24:59;;;;;;;14.05;5.15;;;19.30;99.90;;;;;;5053407;28;20052;-77
2022/08/04 01:27:40;;;;;;;7.68;4.20;;;19.20;99.90;;;;;;5053145;28;20048;-77
2022/08/04 01:30:06;;;;;;;9.43;4.85;;;19.30;99.90;;;;;;5052917;28;20044;-77
2022/08/04 01:32:37;;;;;;;7.55;4.05;;;19.30;99.90;;;;;;5071346;28;20063;-77
2022/08/04 01:35:10;;;;;;;9.27;5.38;;;19.20;99.90;;;;;;5053230;28;20041;-77
2022/08/04 01:38:03;;;;;;;8.43;4.65;;;19.20;99.90;;;;;;5052984;28;20052;-77
2022/08/04 01:40:29;;;;;;;8.18;4.80;;;19.20;99.90;;;;;;5052602;28;20085;-77
2022/08/04 01:42:57;;;;;;;9.43;4.95;;;19.20;99.90;;;;;;5052898;28;20042;-77
2022/08/04 01:45:24;;;;;;;8.13;4.20;;;19.20;99.90;;;;;;5052866;28;20070;-78
2022/08/04 01:47:51;;;;;;;6.68;3.72;;;19.10;99.90;;;;;;5052889;28;20043;-77
2022/08/04 01:50:18;;;;;;;10.15;4.70;;;19.10;99.90;;;;;;5052416;28;20090;-77
2022/08/04 01:52:44;;;;;;;8.30;3.67;;;19.10;99.90;;;;;;5036267;28;20054;-76
2022/08/04 01:55:12;;;;;;;5.20;3.67;;;19.10;99.90;;;;;;5052826;28;20437;-76
2022/08/04 01:57:43;;;;;;;11.50;4.28;;;19.00;99.90;;;;;;5052693;28;20052;-77
2022/08/04 02:00:17;;;;;;;11.68;3.83;;;19.00;99.90;;;;;;5052517;28;20045;-77
2022/08/04 02:02:46;;;;;;;7.10;4.47;;;19.00;99.90;;;;;;5053105;28;20132;-78
2022/08/04 02:05:15;;;;;;;8.02;4.03;;;19.00;99.90;;;;;;5053000;28;20365;-76
2022/08/04 02:08:08;;;;;;;11.35;4.53;;;18.90;99.90;;;;;;5052591;28;20076;-77
2022/08/04 02:10:38;;;;;;;;;;;18.80;99.90;;;;;;5052807;28;20098;-77
2022/08/04 02:13:26;;;;;;;7.15;3.85;;;18.70;99.90;;;;;;5052756;28;19966;-77
2022/08/04 02:16:12;;;;;;;10.25;4.63;;;18.70;99.90;;;;;;5052832;28;20041;-77
2022/08/04 02:19:00;;;;;;;9.20;4.40;;;18.60;99.90;;;;;;5052725;28;20045;-77
2022/08/04 02:21:28;;;;;;;7.40;3.88;;;18.60;99.90;;;;;;5052372;28;20115;-77
2022/08/04 02:24:04;;;;;;;7.22;4.38;;;18.60;99.90;;;;;;5070592;28;20047;-77
2022/08/04 02:26:32;;;;;;;11.00;5.13;;;18.60;99.90;;;;;;5052944;28;20056;-77
2022/08/04 02:29:16;;;;;;;8.07;4.40;;;18.60;99.90;;;;;;5052498;28;20518;-77
2022/08/04 02:31:57;;;;;;;9.88;4.47;;;18.60;99.90;;;;;;5052390;28;20040;-77
2022/08/04 02:34:23;;;;;;;7.10;4.60;;;18.60;99.90;;;;;;5052632;28;20052;-77
2022/08/04 02:36:51;;;;;;;12.73;4.70;;;18.60;99.90;;;;;;5052454;28;20050;-77
2022/08/04 02:39:20;;;;;;;9.02;4.93;;;18.60;99.90;;;;;;5052398;28;20041;-77
2022/08/04 02:41:47;;;;;;;16.35;5.97;;;18.60;99.90;;;;;;5070256;28;20388;-77
2022/08/04 02:44:16;;;;;;;6.68;4.03;;;18.60;99.90;;;;;;5036037;28;20185;-77
2022/08/04 02:46:43;;;;;;;7.57;4.35;;;18.50;99.90;;;;;;5052361;28;20044;-77
2022/08/04 02:49:09;;;;;;;9.18;4.40;;;18.40;99.90;;;;;;5052117;28;20045;-77
2022/08/04 02:51:44;;;;;;;9.50;4.53;;;18.40;99.90;;;;;;5052066;28;20040;-76
2022/08/04 02:54:10;;;;;;;10.07;4.82;;;18.40;99.90;;;;;;5070445;28;20036;-77
2022/08/04 02:56:39;;;;;;;9.73;4.55;;;18.40;99.90;;;;;;5070244;28;20139;-77
2022/08/04 02:59:10;;;;;;;9.65;4.85;;;18.40;99.90;;;;;;5070164;28;20045;-78
2022/08/04 03:01:36;;;;;;;8.10;4.65;;;18.40;99.90;;;;;;5051927;28;20533;-77
2022/08/04 03:04:13;;;;;;;9.48;4.90;;;18.40;99.90;;;;;;5052107;28;20040;-76
2022/08/04 03:06:41;;;;;;;11.68;4.95;;;18.40;99.90;;;;;;5054646;28;20101;-78
2022/08/04 03:09:23;;;;;;;7.07;4.30;;;18.40;99.90;;;;;;5055584;28;20076;-77
2022/08/04 03:12:26;;;;;;;12.68;5.15;;;18.40;99.90;;;;;;5039000;28;20055;-77
2022/08/04 03:15:27;;;;;;;13.10;5.72;;;18.40;99.90;;;;;;5064252;28;20048;-76
2022/08/04 03:18:28;;;;;;;7.95;4.85;;;18.30;99.90;;;;;;5071187;28;20104;-77
2022/08/04 03:21:22;;;;;;;12.25;5.03;;;18.40;99.90;;;;;;5067750;28;20040;-77
2022/08/04 03:24:12;;;;;;;10.38;5.35;;;18.40;99.90;;;;;;5055429;28;20044;-78
2022/08/04 03:26:54;;;;;;;10.10;5.05;;;18.30;99.90;;;;;;5055990;28;20084;-78
2022/08/04 03:29:28;;;;;;;11.02;5.20;;;18.30;99.90;;;;;;5055407;28;20059;-77
2022/08/04 03:32:35;;;;;;;11.75;5.35;;;18.30;99.90;;;;;;5055569;28;20048;-77
2022/08/04 03:35:22;;;;;;;10.15;4.97;;;18.30;99.90;;;;;;5028305;28;20114;-77
2022/08/04 03:38:42;;;;;;;10.68;5.45;;;18.30;99.90;;;;;;5055199;28;20040;-77
2022/08/04 03:41:35;;;;;;;12.82;5.35;;;18.30;99.90;;;;;;4971634;28;20050;-76
2022/08/04 03:44:25;;;;;;;8.70;5.35;;;18.30;99.90;;;;;;5053114;28;20059;-77
2022/08/04 03:46:58;;;;;;;12.55;5.45;;;18.20;99.90;;;;;;5055506;28;20063;-77
2022/08/04 03:49:52;;;;;;;8.77;4.63;;;18.20;99.90;;;;;;5054987;28;20045;-78
2022/08/04 03:55:29;;;;;;;16.33;5.68;;;18.20;99.90;;;;;;5054939;28;20083;-78
2022/08/04 03:58:24;;;;;;;12.45;5.05;;;18.20;99.90;;;;;;5038305;28;20040;-77
2022/08/04 04:01:22;;;;;;;11.45;5.60;;;18.10;99.90;;;;;;5054511;28;20086;-77
2022/08/04 04:04:05;;;;;;;8.32;4.85;;;18.10;99.90;;;;;;5054910;28;20086;-77
2022/08/04 04:06:48;;;;;;;13.88;6.00;;;18.00;99.90;;;;;;5038325;28;20090;-77
2022/08/04 04:09:25;;;;;;;10.68;4.97;;;18.00;99.90;;;;;;5054916;28;20052;-77
2022/08/04 04:11:57;;;;;;;10.25;4.88;;;17.90;99.90;;;;;;5054427;28;20123;-77
2022/08/04 04:14:51;;;;;;;11.18;5.00;;;17.90;99.90;;;;;;5054642;28;20040;-77
2022/08/04 04:17:44;;;;;;;10.65;4.78;;;18.00;99.90;;;;;;5054200;28;20061;-78
2022/08/04 04:20:22;;;;;;;9.13;5.20;;;18.00;99.90;;;;;;5054517;28;20045;-77
2022/08/04 04:23:27;;;;;;;13.25;5.80;;;18.00;99.90;;;;;;5054418;28;20037;-77
2022/08/04 04:26:36;;;;;;;11.35;5.13;;;18.10;99.90;;;;;;5054653;28;20044;-77
2022/08/04 04:29:16;;;;;;;8.10;5.07;;;18.10;99.90;;;;;;5007297;28;20048;-77
2022/08/04 04:31:50;;;;;;;10.85;5.45;;;18.00;99.90;;;;;;5054126;28;20102;-77
2022/08/04 04:34:28;;;;;;;10.57;5.72;;;18.10;99.90;;;;;;5054661;28;20408;-77
2022/08/04 04:37:13;;;;;;;8.90;5.00;;;18.00;99.90;;;;;;5054252;28;20040;-77
2022/08/04 04:39:45;;;;;;;8.95;5.18;;;18.10;99.90;;;;;;5053872;28;20120;-77
2022/08/04 04:42:29;;;;;;;12.77;5.40;;;18.10;99.90;;;;;;5054386;28;20040;-77
2022/08/04 04:45:06;;;;;;;10.55;5.35;;;18.20;99.90;;;;;;5053874;28;20094;-77
2022/08/04 04:48:02;;;;;;;11.18;6.03;;;18.20;99.90;;;;;;5054096;28;20123;-77
2022/08/04 04:50:51;;;;;;;15.32;6.00;;;18.20;99.90;;;;;;5071562;28;20438;-77
2022/08/04 04:53:34;;;;;;;10.73;5.63;;;18.20;99.90;;;;;;5054297;28;20094;-78
2022/08/04 04:56:07;;;;;;;13.50;6.03;;;18.20;99.90;;;;;;5054270;28;20048;-78
2022/08/04 04:58:35;;;;;;;8.05;5.70;;;18.30;99.90;;;;;;5053973;28;20048;-78
2022/08/04 05:01:39;;;;;;;9.43;6.30;;;18.40;99.90;;;;;;5054171;28;20043;-78
2022/08/04 05:04:22;;;;;;;14.32;6.75;;;18.50;99.90;;;;;;5049856;28;20401;-78
2022/08/04 05:07:09;;;;;;;14.85;7.30;;;18.60;99.90;;;;;;5054549;28;20076;-78
2022/08/04 05:09:48;;;;;;;12.38;7.00;;;18.70;99.90;;;;;;5053896;28;20040;-78
2022/08/04 05:12:36;;;;;;;12.55;6.38;;;18.90;99.90;;;;;;5054126;28;20101;-77
2022/08/04 05:15:06;;;;;;;20.92;8.02;;;19.00;99.90;;;;;;5054225;28;20140;-78
2022/08/04 05:17:40;;;;;;;16.80;7.28;;;19.40;99.90;;;;;;5054003;28;20446;-78
2022/08/04 05:20:13;;;;;;;17.48;7.00;;;19.70;99.90;;;;;;5053780;28;20518;-77
2022/08/04 05:22:46;;;;;;;12.55;6.90;;;20.10;99.90;;;;;;5054178;28;20128;-78
2022/08/04 05:25:24;;;;;;;13.52;7.60;;;20.30;99.90;;;;;;5070903;28;20042;-78
2022/08/04 05:27:58;;;;;;;13.60;6.57;;;20.40;99.90;;;;;;5053805;28;20044;-78
2022/08/04 05:30:26;;;;;;;12.50;7.10;;;20.40;99.90;;;;;;5053730;28;20076;-78
2022/08/04 05:32:59;;;;;;;9.52;6.15;;;20.50;99.90;;;;;;5054368;28;20054;-78
2022/08/04 05:35:33;;;;;;;12.02;6.75;;;20.60;99.90;;;;;;5071591;28;20072;-79
2022/08/04 05:38:02;;;;;;;15.15;6.82;;;20.70;99.90;;;;;;5036711;28;20044;-77
2022/08/04 05:40:28;;;;;;;16.05;6.82;;;20.90;99.90;;;;;;5070906;28;20067;-78
2022/08/04 05:42:55;;;;;;;12.20;7.10;;;21.10;99.90;;;;;;5052995;28;20048;-78
2022/08/04 05:45:22;;;;;;;10.73;7.25;;;21.20;99.90;;;;;;5053118;28;20052;-77
2022/08/04 05:47:51;;;;;;;11.07;6.53;;;21.30;99.90;;;;;;5053750;28;20376;-78
2022/08/04 05:50:18;;;;;;;11.07;6.88;;;21.40;99.90;;;;;;5052852;28;20463;-77
2022/08/04 05:52:45;;;;;;;12.25;6.85;;;21.40;99.90;;;;;;5052788;28;20127;-77
2022/08/04 05:55:11;;;;;;;13.43;6.70;;;21.50;99.90;;;;;;5053062;28;20090;-78
2022/08/04 05:57:40;;;;;;;15.55;6.78;;;21.70;99.90;;;;;;5070809;28;20048;-77
2022/08/04 06:00:07;;;;;;;10.23;6.72;;;21.80;99.90;;;;;;5052959;28;20509;-77
2022/08/04 06:02:36;;;;;;;11.65;7.35;;;21.90;99.90;;;;;;5037010;28;20099;-78
2022/08/04 06:05:04;;;;;;;11.68;7.93;;;22.10;99.90;;;;;;5069754;28;20040;-77
2022/08/04 06:07:30;;;;;;;12.50;8.05;;;22.20;99.90;;;;;;5053499;28;20430;-77
2022/08/04 06:09:56;;;;;;;12.95;6.95;;;22.40;99.90;;;;;;5037038;28;20085;-77
2022/08/04 06:12:56;;;;;;;10.48;6.28;;;22.70;99.90;;;;;;5049858;28;20048;-78
2022/08/04 06:15:24;;;;;;;10.15;6.03;;;23.00;99.90;;;;;;5051392;28;20056;-78
2022/08/04 06:18:00;;;;;;;16.63;7.05;;;23.30;99.90;;;;;;5044603;28;20041;-77
2022/08/04 06:20:28;;;;;;;12.82;6.70;;;23.60;99.90;;;;;;5024347;28;20204;-78
2022/08/04 06:23:03;;;;;;;12.43;6.72;;;23.90;99.90;;;;;;5036516;28;20139;-78
2022/08/04 06:25:33;;;;;;;11.50;6.38;;;24.20;99.90;;;;;;5052837;28;20531;-78
2022/08/04 06:28:04;;;;;;;11.43;6.50;;;24.40;99.90;;;;;;5034243;28;20094;-77
2022/08/04 06:30:31;;;;;;;14.77;7.28;;;24.40;99.90;;;;;;5035130;28;20045;-77
2022/08/04 06:32:59;;;;;;;12.98;6.55;;;24.20;99.90;;;;;;5062781;28;20090;-77
2022/08/04 06:35:27;;;;;;;11.13;6.40;;;24.10;99.90;;;;;;5033675;28;20086;-77
2022/08/04 06:37:55;;;;;;;12.20;7.10;;;24.20;99.90;;;;;;5035872;28;20045;-78
2022/08/04 06:40:23;;;;;;;10.60;5.88;;;24.40;99.90;;;;;;5046807;28;20044;-77
2022/08/04 06:42:49;;;;;;;15.63;6.72;;;24.30;99.90;;;;;;5054740;28;20258;-78
2022/08/04 06:45:17;;;;;;;15.43;6.38;;;24.50;99.90;;;;;;5047787;28;20032;-78
2022/08/04 06:47:43;;;;;;;10.70;5.85;;;24.80;99.90;;;;;;5035163;28;20052;-78
2022/08/04 06:50:10;;;;;;;11.68;5.25;;;25.10;99.90;;;;;;5034371;28;20394;-82
2022/08/04 06:52:36;;;;;;;11.02;5.32;;;25.50;99.90;;;;;;5051439;28;20040;-82
2022/08/04 06:55:04;;;;;;;9.20;5.32;;;25.80;99.90;;;;;;5050530;28;20067;-83
2022/08/04 06:57:31;;;;;;;10.70;5.18;;;26.10;99.90;;;;;;5064332;28;20052;-82
2022/08/04 07:00:04;;;;;;;7.25;4.38;;;26.20;99.90;;;;;;5055582;28;20655;-82
2022/08/04 07:02:35;;;;;;;9.60;4.10;;;26.40;99.90;;;;;;5053919;28;20557;-83
2022/08/04 07:05:01;;;;;;;12.20;4.40;;;26.60;99.90;;;;;;5047735;28;20028;-82
2022/08/04 07:07:27;;;;;;;13.13;5.18;;;26.70;99.90;;;;;;5055998;28;20037;-82
2022/08/04 07:09:52;;;;;;;10.20;4.70;;;26.80;99.90;;;;;;5054436;28;20044;-82
2022/08/04 07:12:20;;;;;;;9.25;4.43;;;26.80;99.90;;;;;;5051287;28;20036;-82
2022/08/04 07:14:47;;;;;;;11.85;4.10;;;26.90;99.90;;;;;;5042229;28;20041;-83
2022/08/04 07:17:14;;;;;;;10.63;4.38;;;26.90;99.90;;;;;;5045356;28;20058;-83
2022/08/04 07:19:40;;;;;;;15.85;4.07;;;27.00;99.90;;;;;;5045869;28;20051;-83
2022/08/04 07:22:07;;;;;;;11.45;4.32;;;26.90;99.90;;;;;;5047475;28;20140;-83
2022/08/04 07:24:35;;;;;;;9.50;3.50;;;27.00;99.90;;;;;;5038577;28;20047;-83
2022/08/04 07:27:01;;;;;;;8.55;3.35;;;27.10;99.90;;;;;;5055483;28;20044;-83
2022/08/04 07:29:28;;;;;;;7.85;3.00;;;27.20;99.90;;;;;;5053279;28;20403;-83
2022/08/04 07:31:56;;;;;;;13.25;3.60;;;27.20;99.90;;;;;;5052421;28;20311;-82
2022/08/04 07:34:23;;;;;;;6.38;2.60;;;27.40;99.90;;;;;;5046822;28;20060;-82
2022/08/04 07:36:55;;;;;;;7.82;2.97;;;27.60;99.90;;;;;;5056580;28;20080;-81
2022/08/04 07:39:24;;;;;;;9.95;3.10;;;27.60;99.90;;;;;;5057916;28;20052;-80
2022/08/04 07:41:51;;;;;;;7.28;2.88;;;27.60;99.90;;;;;;5059908;28;20047;-81
2022/08/04 07:44:17;;;;;;;7.63;2.72;;;27.80;99.90;;;;;;5048159;28;20051;-82
2022/08/04 07:46:45;;;;;;;6.28;2.38;;;27.90;99.90;;;;;;5073209;28;20127;-81
2022/08/04 07:49:11;;;;;;;9.50;2.67;;;27.90;99.90;;;;;;5072828;28;20098;-81
2022/08/04 07:51:37;;;;;;;8.93;2.80;;;27.80;99.90;;;;;;5052299;28;20044;-81
2022/08/04 07:54:04;;;;;;;9.18;2.75;;;27.70;99.90;;;;;;5065366;28;20063;-81
2022/08/04 07:56:35;;;;;;;7.32;2.92;;;27.80;99.90;;;;;;5053903;28;20049;-81
2022/08/04 07:59:01;;;;;;;4.18;2.70;;;27.80;99.90;;;;;;5039783;28;20059;-81
2022/08/04 08:01:27;;;;;;;6.72;2.80;;;27.80;99.90;;;;;;5048679;28;20586;-80
2022/08/04 08:03:55;;;;;;;6.13;2.15;;;27.80;99.90;;;;;;5047210;28;20087;-81
2022/08/04 08:06:22;;;;;;;8.82;2.75;;;27.90;99.90;;;;;;5054116;28;20456;-81
2022/08/04 08:08:47;;;;;;;5.05;2.50;;;28.00;99.90;;;;;;5053922;28;20078;-81
2022/08/04 08:11:15;;;;;;;3.97;2.40;;;28.10;99.90;;;;;;5067770;28;20111;-80
2022/08/04 08:13:42;;;;;;;10.25;3.10;;;28.30;99.90;;;;;;5065460;28;20589;-81
2022/08/04 08:16:08;;;;;;;10.25;3.95;;;28.50;99.90;;;;;;5046631;28;20052;-82
2022/08/04 08:18:34;;;;;;;12.07;3.58;;;28.70;99.90;;;;;;5048985;28;20048;-81
2022/08/04 08:21:00;;;;;;;6.45;4.25;;;28.70;99.90;;;;;;5037805;28;20041;-82
2022/08/04 08:23:29;;;;;;;8.10;2.95;;;28.70;99.90;;;;;;5044314;28;20036;-81
2022/08/04 08:25:56;;;;;;;8.48;3.03;;;28.90;99.90;;;;;;5050705;28;20353;-81
2022/08/04 08:28:22;;;;;;;6.88;2.80;;;29.10;99.90;;;;;;5043718;28;20040;-83
2022/08/04 08:30:47;;;;;;;9.50;3.38;;;29.30;99.90;;;;;;5050612;28;20045;-83
2022/08/04 08:33:14;;;;;;;8.70;3.00;;;29.50;99.90;;;;;;5034762;28;20041;-82
2022/08/04 08:35:58;;;;;;;9.02;2.92;;;29.60;99.90;;;;;;5051276;28;20041;-81
2022/08/04 08:38:43;;;;;;;6.93;3.10;;;29.70;99.90;;;;;;5050635;28;21376;-80
2022/08/04 08:41:46;;;;;;;10.13;2.95;;;29.70;99.90;;;;;;5051271;28;20411;-83
2022/08/04 08:44:36;;;;;;;14.63;3.67;;;29.60;99.90;;;;;;5050279;28;20043;-74
2022/08/04 08:47:32;;;;;;;7.30;3.35;;;29.50;99.90;;;;;;5035867;28;20515;-81
2022/08/04 08:50:25;;;;;;;8.60;3.20;;;29.50;99.90;;;;;;5043171;28;20045;-83
2022/08/04 08:53:30;;;;;;;12.52;3.65;;;29.40;99.90;;;;;;5043334;28;20479;-82
2022/08/04 08:56:21;;;;;;;9.93;2.92;;;29.40;99.90;;;;;;5048945;28;20048;-84
2022/08/04 08:58:57;;;;;;;13.98;3.58;;;29.30;99.90;;;;;;5068519;28;20072;-83
2022/08/04 09:02:05;;;;;;;7.20;2.92;;;29.40;99.90;;;;;;5048384;28;20075;-84
2022/08/04 09:04:58;;;;;;;9.70;3.72;;;29.60;99.90;;;;;;5038978;28;20061;-84
2022/08/04 09:07:42;;;;;;;8.48;3.13;;;29.80;99.90;;;;;;5050606;28;20036;-84
2022/08/04 09:10:29;;;;;;;11.65;3.22;;;30.10;99.90;;;;;;5052412;28;20068;-81
2022/08/04 09:13:17;;;;;;;8.45;2.85;;;30.40;99.90;;;;;;5058252;28;20037;-83
2022/08/04 09:15:53;;;;;;;8.32;3.00;;;30.60;99.90;;;;;;5033572;28;20041;-83
2022/08/04 09:18:57;;;;;;;5.88;2.70;;;30.70;99.90;;;;;;5045861;28;20037;-82
2022/08/04 09:21:46;;;;;;;6.75;3.00;;;31.00;99.90;;;;;;4992398;28;20045;-82
2022/08/04 09:24:21;;;;;;;12.40;3.58;;;31.20;99.70;;;;;;5045211;28;20547;-84
2022/08/04 09:26:58;;;;;;;6.47;2.67;;;31.20;99.90;;;;;;5045466;28;20411;-83
2022/08/04 09:29:33;;;;;;;6.97;3.40;;;31.30;99.90;;;;;;5048012;28;20036;-83
2022/08/04 09:32:24;;;;;;;8.32;3.20;;;31.40;99.90;;;;;;5048529;28;20098;-84
2022/08/04 09:35:02;;;;;;;6.22;3.42;;;31.20;96.90;;;;;;5053339;28;20422;-82
2022/08/04 09:38:05;;;;;;;8.10;3.05;;;31.00;97.90;;;;;;5049161;28;20055;-82
2022/08/04 09:40:48;;;;;;;8.07;4.07;;;31.00;98.90;;;;;;5046437;28;20120;-84
2022/08/04 09:43:31;;;;;;;14.45;4.63;;;31.00;99.40;;;;;;5050471;28;20049;-83
2022/08/04 09:46:13;;;;;;;7.38;3.58;;;30.90;98.60;;;;;;5048835;28;20068;-82
2022/08/04 09:48:53;;;;;;;6.88;3.30;;;30.70;99.20;;;;;;5045391;28;20048;-83
2022/08/04 09:51:44;;;;;;;11.73;3.47;;;30.60;98.50;;;;;;5052664;28;20058;-83
2022/08/04 09:54:26;;;;;;;9.13;3.15;;;30.40;98.20;;;;;;5053045;28;20040;-84
2022/08/04 09:57:09;;;;;;;6.43;3.22;;;30.00;99.50;;;;;;5049658;28;20048;-84
2022/08/04 09:59:50;;;;;;;7.90;2.97;;;29.70;99.90;;;;;;5033995;28;20513;-81
2022/08/04 10:02:20;;;;;;;9.48;3.60;;;29.50;99.90;;;;;;5029593;28;20115;-82
2022/08/04 10:04:48;;;;;;;8.27;3.05;;;29.40;99.90;;;;;;5036915;28;20127;-83
2022/08/04 10:07:35;;;;;;;11.50;3.45;;;29.40;99.90;;;;;;5037410;28;20036;-82
2022/08/04 10:10:22;;;;;;;5.78;2.92;;;29.50;99.90;;;;;;5053135;28;20400;-84
2022/08/04 10:13:15;;;;;;;9.60;2.72;;;29.60;99.90;;;;;;5063519;28;20056;-84
2022/08/04 10:16:04;;;;;;;9.30;2.63;;;29.70;99.90;;;;;;5035726;28;20423;-82
2022/08/04 10:19:11;;;;;;;6.78;2.20;;;29.80;99.90;;;;;;5047307;28;20105;-82
2022/08/04 10:21:37;;;;;;;6.75;2.40;;;30.10;98.80;;;;;;5056700;28;20044;-78
2022/08/04 10:24:31;;;;;;;5.45;2.20;;;30.30;99.70;;;;;;5059224;28;20103;-82
2022/08/04 10:27:16;;;;;;;10.27;2.35;;;30.40;99.10;;;;;;5036899;28;20106;-82
2022/08/04 10:29:43;;;;;;;6.13;2.05;;;30.40;97.50;;;;;;5036509;28;20033;-83
2022/08/04 10:32:16;;;;;;;6.95;1.90;;;30.20;98.50;;;;;;5037628;28;20084;-82
2022/08/04 10:35:04;;;;;;;6.03;2.00;;;30.00;97.60;;;;;;5038090;28;20492;-82
2022/08/04 10:38:03;;;;;;;7.18;2.25;;;29.80;98.60;;;;;;5038143;28;20514;-82
2022/08/04 10:40:45;;;;;;;4.68;1.85;;;29.60;99.10;;;;;;5023916;28;20079;-81
2022/08/04 10:43:19;;;;;;;3.42;1.92;;;29.40;99.30;;;;;;5038118;28;20048;-83
2022/08/04 10:46:00;;;;;;;6.18;1.58;;;29.30;99.90;;;;;;5038779;28;20048;-83
2022/08/04 10:48:57;;;;;;;4.47;1.88;;;29.30;99.90;;;;;;5036894;28;20037;-83
2022/08/04 10:51:33;;;;;;;6.80;2.20;;;29.30;99.90;;;;;;5021535;28;20041;-81
2022/08/04 10:54:04;;;;;;;6.68;1.30;;;29.50;99.90;;;;;;5055528;28;20041;-81
2022/08/04 10:56:53;;;;;;;11.75;1.90;;;29.70;99.30;;;;;;5022545;28;20053;-82
2022/08/04 10:59:53;;;;;;;4.95;1.30;;;29.60;98.10;;;;;;5037282;28;20056;-83
2022/08/04 11:02:43;;;;;;;6.40;1.60;;;29.60;97.50;;;;;;5038891;28;20483;-82
2022/08/04 11:05:16;;;;;;;7.57;1.52;;;29.70;97.00;;;;;;5038025;28;20048;-83
2022/08/04 11:07:46;;;;;;;8.77;1.70;;;29.70;96.80;;;;;;5037225;28;20128;-81
2022/08/04 11:10:12;;;;;;;2.95;1.40;;;29.70;96.90;;;;;;5036758;28;20103;-80
2022/08/04 11:12:41;;;;;;;8.85;1.65;;;29.70;96.90;;;;;;5036810;28;20048;-80
2022/08/04 11:15:22;;;;;;;9.95;2.08;;;29.80;97.00;;;;;;5038277;28;20048;-77
2022/08/04 11:17:56;;;;;;;;;;;29.80;97.00;;;;;;5044960;28;20040;-81
2022/08/04 11:20:29;;;;;;;6.32;1.50;;;29.60;97.40;;;;;;5059504;28;19920;-82
2022/08/04 11:23:12;;;;;;;8.75;2.15;;;29.50;97.20;;;;;;5042183;28;20041;-81
2022/08/04 11:25:51;;;;;;;8.02;1.25;;;29.30;95.30;;;;;;5037879;28;20499;-81
2022/08/04 11:28:35;;;;;;;5.45;1.35;;;29.30;96.40;;;;;;5021111;28;20049;-82
2022/08/04 11:31:10;;;;;;;3.40;1.45;;;29.10;97.00;;;;;;5038617;28;20041;-83
2022/08/04 11:33:46;;;;;;;4.38;1.20;;;29.10;98.10;;;;;;5040059;28;20126;-82
2022/08/04 11:36:24;;;;;;;2.67;1.27;;;28.90;98.20;;;;;;5039989;28;20055;-83
2022/08/04 11:39:06;;;;;;;4.97;1.70;;;28.80;98.80;;;;;;5024995;28;20065;-82
2022/08/04 11:41:38;;;;;;;3.03;1.60;;;28.80;98.80;;;;;;5040743;28;20341;-79
2022/08/04 11:44:05;;;;;;;5.00;1.40;;;28.60;99.90;;;;;;5039674;28;20048;-80
2022/08/04 11:46:40;;;;;;;4.43;1.30;;;28.30;99.90;;;;;;5039219;28;20037;-82
2022/08/04 11:49:13;;;;;;;5.00;1.80;;;28.10;99.90;;;;;;5038925;28;20109;-81
2022/08/04 11:51:43;;;;;;;3.72;1.80;;;28.00;99.90;;;;;;5019676;28;20044;-82
2022/08/04 11:54:11;;;;;;;3.72;1.65;;;27.90;99.90;;;;;;5036827;28;20051;-81
2022/08/04 11:56:37;;;;;;;4.20;1.65;;;27.80;99.90;;;;;;5037279;28;20045;-80
2022/08/04 11:59:06;;;;;;;2.90;1.10;;;27.70;99.90;;;;;;5037160;28;20036;-80
2022/08/04 12:01:43;;;;;;;1.98;1.02;;;27.60;99.90;;;;;;5037232;28;20040;-81
2022/08/04 12:04:17;;;;;;;3.80;0.75;;;27.40;99.90;;;;;;5021025;28;20456;-83
2022/08/04 12:07:04;;;;;;;2.90;0.98;;;27.20;99.90;;;;;;5037736;28;20456;-81
2022/08/04 12:09:55;;;;;;;2.38;0.85;;;27.00;99.90;;;;;;5037501;28;20162;-80
2022/08/04 12:12:28;;;;;;;2.97;0.90;;;26.80;99.90;;;;;;5038494;28;20535;-81
2022/08/04 12:15:22;;;;;;;1.95;1.40;;;26.60;99.90;;;;;;5021749;28;20079;-81
2022/08/04 12:18:02;;;;;;;7.25;1.20;;;26.40;99.90;;;;;;5038323;28;20098;-79
2022/08/04 12:20:33;;;;;;;2.47;1.23;;;26.20;99.90;;;;;;5037647;28;20048;-81
2022/08/04 12:23:02;;;;;;;3.85;1.27;;;26.10;99.90;;;;;;5020507;28;20143;-82
2022/08/04 12:25:35;;;;;;;1.67;1.02;;;25.80;99.90;;;;;;5040229;28;20392;-82
2022/08/04 12:28:06;;;;;;;4.03;1.30;;;25.70;99.90;;;;;;5035757;28;20562;-77
2022/08/04 12:30:39;;;;;;;5.05;1.30;;;25.60;99.90;;;;;;5052013;28;20070;-77
2022/08/04 12:33:11;;;;;;;6.43;1.20;;;25.50;99.90;;;;;;5034387;28;20094;-75
2022/08/04 12:36:03;;;;;;;1.42;0.80;;;25.40;99.90;;;;;;5018038;28;20076;-77
2022/08/04 12:38:32;;;;;;;3.28;1.52;;;25.30;99.90;;;;;;5033998;28;20080;-76
2022/08/04 12:41:03;;;;;;;3.35;0.75;;;25.10;99.90;;;;;;5033993;28;20516;-76
2022/08/04 12:43:34;;;;;;;1.52;1.13;;;25.10;99.90;;;;;;5067736;28;20061;-75
2022/08/04 12:46:11;;;;;;;2.60;0.90;;;25.00;99.90;;;;;;5051527;28;20098;-76
2022/08/04 12:48:38;;;;;;;3.85;0.90;;;25.00;99.90;;;;;;5043915;28;20287;-76
2022/08/04 12:51:07;;;;;;;2.78;1.00;;;25.00;99.90;;;;;;5051735;28;20595;-77
2022/08/04 12:53:43;;;;;;;1.67;0.98;;;25.10;99.90;;;;;;5034082;28;20052;-76
2022/08/04 12:56:11;;;;;;;1.65;0.70;;;25.20;99.90;;;;;;5050878;28;20041;-77
2022/08/04 12:58:41;;;;;;;1.33;0.60;;;25.50;99.90;;;;;;5034066;28;20126;-75
2022/08/04 13:01:20;;;;;;;2.10;0.77;;;25.90;99.90;;;;;;5034097;28;20064;-76
2022/08/04 13:03:56;;;;;;;1.42;0.85;;;26.30;99.90;;;;;;5051962;28;20048;-77
2022/08/04 13:06:31;;;;;;;4.32;0.75;;;26.80;99.90;;;;;;5033905;28;20583;-76
2022/08/04 13:09:09;;;;;;;1.27;0.80;;;27.20;99.90;;;;;;5033773;28;20044;-77
2022/08/04 13:11:40;;;;;;;2.50;0.82;;;27.60;99.90;;;;;;5033727;28;20376;-77
2022/08/04 13:14:08;;;;;;;2.92;0.93;;;28.00;99.90;;;;;;5034135;28;20132;-77
2022/08/04 13:16:34;;;;;;;1.33;0.70;;;28.20;98.80;;;;;;5051180;28;20044;-77
2022/08/04 13:19:01;;;;;;;5.20;1.08;;;28.00;98.20;;;;;;5033649;28;20095;-76
2022/08/04 13:21:29;;;;;;;2.90;0.88;;;28.10;98.20;;;;;;5051083;28;20049;-76
2022/08/04 13:24:05;;;;;;;3.08;1.15;;;28.20;97.60;;;;;;5051333;28;20099;-77
2022/08/04 13:26:33;;;;;;;2.28;0.80;;;28.10;96.90;;;;;;5033691;28;20045;-77
2022/08/04 13:29:02;;;;;;;2.88;0.80;;;28.00;97.20;;;;;;5033240;28;20044;-77
2022/08/04 13:31:28;;;;;;;4.90;1.00;;;28.00;97.50;;;;;;5032938;28;20049;-77
2022/08/04 13:34:04;;;;;;;2.40;0.95;;;27.90;97.80;;;;;;5051203;28;20033;-77
2022/08/04 13:36:31;;;;;;;2.97;1.30;;;28.00;97.90;;;;;;5051170;28;20082;-77